Time;durP1;ratioP1;P1;durP2;ratioP2;P2;SDS_P1;SDS_P2;PMS_P1;PMS_P2;Temp;Humidity;BMP_temperature;BMP_pressure;BME280_temperature;BME280_humidity;BME280_pressure;Samples;Min_cycle;Max_cycle;Signal;HPM_P1;HPM_P2
2023/10/11 00:00:24;;;;;;;0.10;0.10;;;;;;;15.08;100.00;99264.69;5093838;28;20191;-58
2023/10/11 00:03:15;;;;;;;0.10;0.10;;;;;;;14.99;100.00;99263.63;5093817;28;20190;-58
2023/10/11 00:06:05;;;;;;;0.03;0.03;;;;;;;15.00;100.00;99259.13;5093725;28;20219;-58
2023/10/11 00:08:54;;;;;;;0.10;0.10;;;;;;;14.95;100.00;99263.97;5093624;28;20210;-58
2023/10/11 00:11:42;;;;;;;0.10;0.10;;;;;;;14.96;100.00;99257.66;5092347;28;20199;-58
2023/10/11 00:14:29;;;;;;;0.10;0.10;;;;;;;14.88;100.00;99260.97;5093618;28;20194;-58
2023/10/11 00:17:16;;;;;;;0.10;0.10;;;;;;;14.96;100.00;99271.88;5093117;28;20218;-58
2023/10/11 00:20:11;;;;;;;0.10;0.10;;;;;;;14.96;100.00;83422.72;5093500;28;20203;-58
2023/10/11 00:22:59;;;;;;;0.10;0.10;;;;;;;14.89;100.00;99254.66;5093443;28;20195;-58
2023/10/11 00:25:45;;;;;;;0.10;0.10;;;;;;;14.86;100.00;99262.88;5093387;28;20194;-58
2023/10/11 00:28:37;;;;;;;0.10;0.10;;;;;;;14.78;100.00;99255.53;5091997;28;20190;-58
2023/10/11 00:31:24;;;;;;;0.10;0.10;;;;;;;14.73;100.00;99255.03;5093259;28;20265;-58
2023/10/11 00:34:12;;;;;;;0.10;0.10;;;;;;;14.75;100.00;99260.22;5106551;28;20190;-58
2023/10/11 00:37:00;;;;;;;0.10;0.10;;;;;;;14.71;100.00;99261.47;5091920;28;20226;-58
2023/10/11 00:39:47;;;;;;;0.10;0.10;;;;;;;14.65;100.00;99254.78;5092269;28;20214;-58
2023/10/11 00:42:34;;;;;;;0.10;0.10;;;;;;;14.62;100.00;99257.69;5091689;28;20198;-58
2023/10/11 00:45:23;;;;;;;0.10;0.10;;;;;;;14.67;100.00;99252.88;5092665;28;20366;-58
2023/10/11 00:48:12;;;;;;;0.10;0.10;;;;;;;14.71;100.00;99256.13;5093110;28;20259;-58
2023/10/11 00:50:59;;;;;;;0.10;0.10;;;;;;;14.61;100.00;99253.34;5092998;28;20210;-58
2023/10/11 00:53:48;;;;;;;0.10;0.10;;;;;;;14.59;100.00;99261.47;5077696;28;20199;-58
2023/10/11 00:56:35;;;;;;;0.10;0.10;;;;;;;14.45;100.00;99256.34;5091628;28;20296;-59
2023/10/11 00:59:22;;;;;;;0.10;0.10;;;;;;;14.48;100.00;99260.63;5092952;28;20213;-58
2023/10/11 01:02:14;;;;;;;0.10;0.10;;;;;;;14.52;100.00;99256.72;5077647;28;20190;-58
2023/10/11 01:05:01;;;;;;;0.10;0.10;;;;;;;14.49;100.00;99249.84;5092962;28;20410;-58
2023/10/11 01:07:49;;;;;;;0.10;0.10;;;;;;;14.42;100.00;99245.06;5092855;28;20215;-58
2023/10/11 01:10:37;;;;;;;0.10;0.10;;;;;;;14.25;100.00;99241.88;5093059;28;20191;-58
2023/10/11 01:13:23;;;;;;;0.10;0.10;;;;;;;14.35;100.00;99246.50;5076213;28;20203;-58
2023/10/11 01:16:11;;;;;;;0.10;0.10;;;;;;;14.08;100.00;99239.69;5077495;28;20191;-58
2023/10/11 01:19:00;;;;;;;0.10;0.10;;;;;;;14.09;100.00;99236.06;5092867;28;20190;-58
2023/10/11 01:21:52;;;;;;;0.10;0.10;;;;;;;14.12;100.00;99246.50;5092823;28;20666;-58
2023/10/11 01:24:41;;;;;;;0.10;0.10;;;;;;;13.96;100.00;99229.97;5092726;28;20272;-58
2023/10/11 01:27:31;;;;;;;0.10;0.10;;;;;;;14.07;100.00;99232.66;5090493;28;20264;-58
2023/10/11 01:30:18;;;;;;;0.10;0.10;;;;;;;14.07;100.00;99224.66;5092463;28;20195;-58
2023/10/11 01:33:06;;;;;;;0.10;0.10;;;;;;;14.14;100.00;99231.22;5077379;28;20191;-58
2023/10/11 01:35:52;;;;;;;0.10;0.10;;;;;;;14.21;100.00;99223.63;5077361;28;20198;-58
2023/10/11 01:38:47;;;;;;;0.10;0.10;;;;;;;14.09;100.00;99224.53;5092252;28;20246;-58
2023/10/11 01:41:33;;;;;;;0.10;0.10;;;;;;;14.04;100.00;99225.75;5091350;28;20306;-58
2023/10/11 01:44:22;;;;;;;0.10;0.10;;;;;;;14.14;100.00;99217.91;5092559;28;20199;-58
2023/10/11 01:47:09;;;;;;;0.10;0.10;;;;;;;14.20;100.00;99221.94;5092354;28;20191;-58
2023/10/11 01:49:56;;;;;;;0.10;0.10;;;;;;;14.24;100.00;99224.22;5092552;28;20195;-58
2023/10/11 01:52:47;;;;;;;0.10;0.10;;;;;;;14.31;100.00;99212.13;5092495;28;20198;-58
2023/10/11 01:55:39;;;;;;;0.10;0.10;;;;;;;14.22;100.00;99214.66;5092426;28;20215;-58
2023/10/11 01:58:26;;;;;;;0.10;0.10;;;;;;;14.18;100.00;99213.19;5093874;28;20333;-58
2023/10/11 02:01:22;;;;;;;0.10;0.10;;;;;;;14.09;100.00;99212.09;5094992;28;20213;-58
2023/10/11 02:04:16;;;;;;;0.10;0.10;;;;;;;14.06;100.00;99209.66;5096073;28;20197;-58
2023/10/11 02:07:03;;;;;;;0.10;0.10;;;;;;;14.12;100.00;99214.53;5095943;28;20238;-58
2023/10/11 02:09:50;;;;;;;0.10;0.10;;;;;;;14.18;100.00;99218.50;5096147;28;20201;-58
2023/10/11 02:12:40;;;;;;;0.10;0.10;;;;;;;14.23;100.00;99211.88;5094661;28;20278;-58
2023/10/11 02:15:28;;;;;;;0.10;0.10;;;;;;;14.24;100.00;99205.56;5095833;28;20198;-58
2023/10/11 02:18:15;;;;;;;0.10;0.10;;;;;;;14.19;100.00;99209.56;5095517;28;20240;-58
2023/10/11 02:21:06;;;;;;;0.10;0.10;;;;;;;14.13;100.00;99207.38;5094607;28;20187;-58
2023/10/11 02:23:56;;;;;;;0.10;0.10;;;;;;;14.02;100.00;99205.56;5095609;28;20199;-58
2023/10/11 02:26:49;;;;;;;0.10;0.10;;;;;;;14.06;100.00;99204.34;5094197;28;20216;-58
2023/10/11 02:29:41;;;;;;;0.10;0.10;;;;;;;14.10;100.00;99205.81;5080279;28;20199;-58
2023/10/11 02:32:33;;;;;;;0.10;0.10;;;;;;;14.01;100.00;99202.03;5095530;28;20265;-58
2023/10/11 02:35:26;;;;;;;0.10;0.10;;;;;;;14.12;100.00;99201.19;5095457;28;20195;-58
2023/10/11 02:38:21;;;;;;;0.10;0.10;;;;;;;14.09;100.00;99205.91;5094900;28;20234;-58
2023/10/11 02:41:07;;;;;;;0.10;0.10;;;;;;;14.10;100.00;99208.47;5094341;28;20210;-58
2023/10/11 02:43:57;;;;;;;0.10;0.10;;;;;;;14.10;0.00;99200.56;5093951;28;20581;-58
2023/10/11 02:46:47;;;;;;;0.10;0.10;;;;;;;14.21;100.00;99197.81;5095205;28;20217;-58
2023/10/11 02:49:34;;;;;;;0.10;0.10;;;;;;;14.14;100.00;99193.09;5095078;28;20229;-58
2023/10/11 02:52:29;;;;;;;0.10;0.10;;;;;;;14.02;100.00;99195.75;5095110;28;20277;-58
2023/10/11 02:55:21;;;;;;;0.00;0.00;;;;;;;14.04;100.00;99188.47;5108444;28;20195;-58
2023/10/11 02:58:09;;;;;;;0.10;0.10;;;;;;;14.18;100.00;99186.53;5093394;28;20253;-58
2023/10/11 03:01:10;;;;;;;0.10;0.10;;;;;;;13.92;100.00;99189.44;5094047;28;20203;-58
2023/10/11 03:04:15;;;;;;;0.10;0.10;;;;;;;13.79;100.00;99186.00;5079516;28;20269;-58
2023/10/11 03:07:03;;;;;;;0.10;0.10;;;;;;;13.80;100.00;99193.06;5108302;28;20715;-58
2023/10/11 03:09:53;;;;;;;0.10;0.10;;;;;;;188.97;100.00;99193.06;5079437;28;20214;-58
2023/10/11 03:12:42;;;;;;;0.10;0.10;;;;;;;13.84;100.00;99183.84;5077879;28;20195;-58
2023/10/11 03:15:29;;;;;;;0.10;0.10;;;;;;;13.88;100.00;99185.28;5094719;28;20289;-58
2023/10/11 03:18:16;;;;;;;0.10;0.10;;;;;;;13.85;100.00;99185.53;5094427;28;20281;-58
2023/10/11 03:21:17;;;;;;;0.10;0.10;;;;;;;13.83;100.00;99184.81;5094406;28;20783;-58
2023/10/11 03:24:05;;;;;;;0.10;0.10;;;;;;;13.88;100.00;99184.44;5094468;28;20268;-58
2023/10/11 03:26:52;;;;;;;0.10;0.10;;;;;;;13.76;100.00;99180.91;5093110;28;20190;-58
2023/10/11 03:29:40;;;;;;;0.10;0.10;;;;;;;13.82;100.00;99180.47;5094399;28;20305;-58
2023/10/11 03:32:26;;;;;;;0.10;0.10;;;;;;;13.85;100.00;99174.88;5094363;28;20191;-58
2023/10/11 03:35:18;;;;;;;0.10;0.10;;;;;;;13.80;100.00;99179.75;5094284;28;20207;-58
2023/10/11 03:38:17;;;;;;;0.10;0.10;;;;;;;13.75;100.00;99176.56;5093714;28;20234;-58
2023/10/11 03:41:14;;;;;;;0.10;0.10;;;;;;;13.75;100.00;99171.25;5094059;28;20183;-58
2023/10/11 03:44:09;;;;;;;0.10;0.10;;;;;;;13.66;100.00;99175.44;5093995;28;20194;-58
2023/10/11 03:46:56;;;;;;;0.10;0.10;;;;;;;13.73;100.00;99175.84;5093992;28;20194;-58
2023/10/11 03:49:51;;;;;;;0.10;0.10;;;;;;;13.77;100.00;99173.78;5093926;28;20191;-58
2023/10/11 03:52:40;;;;;;;0.10;0.10;;;;;;;13.67;100.00;99174.47;5094067;28;20203;-58
2023/10/11 03:55:31;;;;;;;0.10;0.10;;;;;;;13.77;100.00;99173.78;5093919;28;20206;-59
2023/10/11 03:58:36;;;;;;;0.10;0.10;;;;;;;13.70;100.00;99168.94;5092364;28;20214;-58
2023/10/11 04:01:24;;;;;;;0.10;0.10;;;;;;;13.70;100.00;99170.72;5093735;28;20190;-58
2023/10/11 04:04:12;;;;;;;0.10;0.10;;;;;;;13.73;100.00;99175.84;5093766;28;20195;-58
2023/10/11 04:07:01;;;;;;;0.10;0.10;;;;;;;13.68;100.00;99160.22;5093585;28;20214;-58
2023/10/11 04:09:48;;;;;;;0.10;0.10;;;;;;;13.70;100.00;99168.94;5093647;28;20190;-58
2023/10/11 04:12:42;;;;;;;0.10;0.10;;;;;;;13.69;100.00;99164.56;5092213;28;20198;-58
2023/10/11 04:15:30;;;;;;;0.10;0.10;;;;;;;13.75;100.00;99156.13;5093579;28;20257;-58
2023/10/11 04:18:32;;;;;;;0.10;0.10;;;;;;;13.69;100.00;99156.56;5093428;28;20215;-58
2023/10/11 04:21:39;;;;;;;0.03;0.03;;;;;;;13.56;100.00;99152.31;5092854;28;20673;-58
2023/10/11 04:24:27;;;;;;;0.10;0.10;;;;;;;13.69;100.00;99156.56;5093497;28;20191;-58
2023/10/11 04:30:23;;;;;;;0.10;0.10;;;;;;;13.55;100.00;99159.47;5093324;28;20186;-58
2023/10/11 04:33:12;;;;;;;0.10;0.10;;;;;;;13.64;100.00;99165.91;5093318;28;20253;-58
2023/10/11 04:36:02;;;;;;;0.10;0.10;;;;;;;13.63;100.00;99166.88;5092900;28;20553;-58
2023/10/11 04:38:49;;;;;;;0.10;0.10;;;;;;;13.56;100.00;99169.13;5093128;28;20215;-58
2023/10/11 04:41:38;;;;;;;0.10;0.10;;;;;;;13.66;100.00;99175.44;5091417;28;20210;-58
2023/10/11 04:44:30;;;;;;;0.10;0.10;;;;;;;13.50;100.00;99177.56;5092946;28;20199;-58
2023/10/11 04:47:19;;;;;;;0.10;0.10;;;;;;;13.41;100.00;99181.81;5093112;28;20203;-58
2023/10/11 04:50:11;;;;;;;0.10;0.10;;;;;;;13.29;100.00;99177.38;5093085;28;20191;-58
2023/10/11 04:52:58;;;;;;;0.10;0.10;;;;;;;13.35;100.00;99176.09;5092984;28;20198;-58
2023/10/11 04:55:48;;;;;;;0.10;0.10;;;;;;;13.27;100.00;99173.16;5093045;28;20194;-58
2023/10/11 04:58:42;;;;;;;0.10;0.10;;;;;;;13.21;100.00;99171.78;5091587;28;20211;-58
2023/10/11 05:01:45;;;;;;;0.10;0.10;;;;;;;13.62;100.00;99167.84;5092961;28;20673;-59
2023/10/11 05:04:33;;;;;;;0.10;0.10;;;;;;;13.27;100.00;99174.00;5092889;28;20286;-58
2023/10/11 05:07:21;;;;;;;0.10;0.10;;;;;;;13.25;100.00;99178.59;5092744;28;20261;-58
2023/10/11 05:10:29;;;;;;;0.10;0.10;;;;;;;13.20;100.00;99170.09;5092907;28;20229;-58
2023/10/11 05:13:17;;;;;;;0.10;0.10;;;;;;;13.15;100.00;99175.72;5091536;28;20194;-58
2023/10/11 05:16:07;;;;;;;0.10;0.10;;;;;;;13.08;100.00;99173.63;5093159;28;20198;-58
2023/10/11 05:18:54;;;;;;;0.10;0.10;;;;;;;13.25;100.00;99175.94;5092599;28;20222;-58
2023/10/11 05:21:43;;;;;;;0.10;0.10;;;;;;;13.25;100.00;99175.94;5092951;28;20276;-58
2023/10/11 05:24:44;;;;;;;0.10;0.10;;;;;;;13.32;100.00;99181.66;5092971;28;20261;-58
2023/10/11 05:27:36;;;;;;;0.10;0.10;;;;;;;-144.59;100.00;99185.38;5091387;28;20677;-58
2023/10/11 05:30:28;;;;;;;0.10;0.10;;;;;;;13.29;100.00;75307.44;5092463;28;20191;-58
2023/10/11 05:33:31;;;;;;;0.10;0.10;;;;;;;13.24;100.00;99194.66;5096692;28;20194;-58
2023/10/11 05:36:36;;;;;;;0.10;0.10;;;;;;;13.25;100.00;99201.69;5096417;28;20226;-58
2023/10/11 05:51:42;;;;;;;0.10;0.10;;;;;;;13.28;100.00;99204.09;5096508;28;20202;-58
2023/10/11 05:54:34;;;;;;;0.10;0.10;;;;;;;13.31;100.00;99202.06;5096310;28;20202;-58
2023/10/11 05:57:23;;;;;;;0.10;0.10;;;;;;;13.43;100.00;99200.31;5094809;28;20202;-58
2023/10/11 06:00:22;;;;;;;0.10;0.10;;;;;;;13.32;100.00;99197.59;5095958;28;20215;-58
2023/10/11 06:03:11;;;;;;;0.10;0.10;;;;;;;13.26;100.00;99190.91;5095893;28;20191;-58
2023/10/11 06:06:08;;;;;;;0.10;0.10;;;;;;;13.31;100.00;99191.41;5095807;28;20195;-58
2023/10/11 06:08:57;;;;;;;0.10;0.10;;;;;;;13.28;100.00;99194.31;5096024;28;20233;-58
2023/10/11 06:11:48;;;;;;;0.10;0.10;;;;;;;13.28;100.00;99196.97;5094782;28;20195;-58
2023/10/11 06:14:36;;;;;;;0.10;0.10;;;;;;;13.35;100.00;99192.91;5095753;28;20210;-58
2023/10/11 06:17:32;;;;;;;0.10;0.10;;;;;;;13.43;100.00;99190.50;5095901;28;20249;-58
2023/10/11 06:20:26;;;;;;;0.10;0.10;;;;;;;13.39;100.00;99177.53;5095298;28;20297;-58
2023/10/11 06:23:13;;;;;;;0.10;0.10;;;;;;;13.42;100.00;99180.84;5095748;28;20238;-58
2023/10/11 06:26:21;;;;;;;0.10;0.10;;;;;;;13.55;100.00;99185.22;5095629;28;20194;-58
2023/10/11 06:29:07;;;;;;;0.10;0.10;;;;;;;13.52;100.00;99190.78;5095300;28;20194;-58
2023/10/11 06:31:54;;;;;;;0.10;0.10;;;;;;;13.70;100.00;99195.56;5095144;28;20289;-58
2023/10/11 06:34:59;;;;;;;0.10;0.10;;;;;;;13.88;100.00;99203.94;5095288;28;20297;-58
2023/10/11 06:37:52;;;;;;;0.10;0.10;;;;;;;13.81;100.00;99201.88;5095138;28;20226;-58
2023/10/11 06:40:53;;;;;;;0.10;0.10;;;;;;;13.91;100.00;99200.22;5095193;28;20298;-58
2023/10/11 06:43:39;;;;;;;0.10;0.10;;;;;;;13.95;100.00;99196.31;5093412;28;20237;-58
2023/10/11 06:46:29;;;;;;;0.10;0.10;;;;;;;13.93;100.00;99203.59;5095310;28;20195;-58
2023/10/11 06:49:16;;;;;;;0.10;0.10;;;;;;;14.00;100.00;99208.34;5095376;28;20229;-58
2023/10/11 06:52:05;;;;;;;0.10;0.10;;;;;;;14.18;100.00;99194.53;5095229;28;20281;-58
2023/10/11 06:55:14;;;;;;;0.10;0.10;;;;;;;14.14;100.00;99195.75;5095038;28;20700;-58
2023/10/11 06:58:08;;;;;;;0.10;0.10;;;;;;;14.37;100.00;99191.28;5093587;28;20252;-58
2023/10/11 07:00:56;;;;;;;0.10;0.10;;;;;;;14.38;100.00;99190.28;5094702;28;20214;-58
2023/10/11 07:03:45;;;;;;;0.00;0.00;;;;;;;14.44;100.00;99179.16;5094966;28;20215;-58
2023/10/11 07:06:35;;;;;;;0.00;0.00;;;;;;;14.56;100.00;99188.88;5094798;28;20554;-58
2023/10/11 07:09:29;;;;;;;0.10;0.10;;;;;;;14.56;100.00;99176.38;5094927;28;20297;-58
2023/10/11 07:12:39;;;;;;;0.10;0.10;;;;;;;14.79;100.00;99185.22;5093424;28;20199;-58
2023/10/11 07:15:25;;;;;;;0.10;0.10;;;;;;;14.76;100.00;99176.59;5094745;28;20237;-58
2023/10/11 07:18:21;;;;;;;0.10;0.10;;;;;;;14.85;100.00;99181.19;5094682;28;20190;-58
2023/10/11 07:21:10;;;;;;;0.10;0.10;;;;;;;14.99;100.00;99190.75;5094376;28;20717;-58
2023/10/11 07:23:57;;;;;;;0.00;0.00;;;;;;;15.02;100.00;99199.34;5094509;28;20195;-58
2023/10/11 07:26:49;;;;;;;0.10;0.10;;;;;;;15.06;100.00;99206.13;5093256;28;20218;-59
2023/10/11 07:29:37;;;;;;;0.10;0.10;;;;;;;15.18;100.00;99197.13;5094441;28;20317;-58
2023/10/11 07:32:24;;;;;;;0.10;0.10;;;;;;;15.40;100.00;99187.34;5094439;28;20191;-59
2023/10/11 07:35:18;;;;;;;0.10;0.10;;;;;;;15.45;100.00;99183.31;5094239;28;20245;-58
2023/10/11 07:38:08;;;;;;;0.10;0.10;;;;;;;15.71;100.00;99178.47;5093902;28;20292;-58
2023/10/11 07:40:57;;;;;;;0.00;0.00;;;;;;;15.81;100.00;99178.53;5094067;28;20281;-58
2023/10/11 07:43:45;;;;;;;0.10;0.10;;;;;;;15.92;100.00;99180.28;5093317;28;20284;-58
2023/10/11 07:46:32;;;;;;;0.00;0.00;;;;;;;16.13;100.00;99180.28;5094285;28;20199;-58
2023/10/11 07:49:23;;;;;;;0.10;0.10;;;;;;;16.38;100.00;99178.97;5094132;28;20195;-58
2023/10/11 07:52:10;;;;;;;0.10;0.10;;;;;;;16.38;100.00;99178.97;5093808;28;20226;-58
2023/10/11 07:54:59;;;;;;;0.10;0.10;;;;;;;16.44;100.00;99179.28;5092986;28;20198;-58
2023/10/11 07:57:46;;;;;;;0.10;0.10;;;;;;;16.47;100.00;99181.69;5092649;28;20202;-58
2023/10/11 08:00:33;;;;;;;0.10;0.10;;;;;;;16.71;100.00;99181.38;5093448;28;20219;-58
2023/10/11 08:03:20;;;;;;;0.10;0.10;;;;;;;16.52;100.00;99183.97;5093894;28;20187;-58
2023/10/11 08:06:08;;;;;;;0.10;0.10;;;;;;;16.71;100.00;99196.59;5093711;28;20198;-58
2023/10/11 08:08:59;;;;;;;0.10;0.10;;;;;;;16.77;100.00;99188.00;5093471;28;20195;-58
2023/10/11 08:11:52;;;;;;;0.10;0.10;;;;;;;16.80;100.00;99177.91;5092446;28;20310;-58
2023/10/11 08:14:44;;;;;;;0.10;0.10;;;;;;;17.27;100.00;99180.75;5093654;28;20191;-58
2023/10/11 08:17:31;;;;;;;0.00;0.00;;;;;;;17.45;100.00;99173.72;5093600;28;20194;-58
2023/10/11 08:20:19;;;;;;;0.10;0.10;;;;;;;17.53;100.00;99172.16;5093366;28;20205;-58
2023/10/11 08:23:08;;;;;;;0.10;0.10;;;;;;;17.57;100.00;99170.91;5093392;28;20253;-58
2023/10/11 08:25:55;;;;;;;0.10;0.10;;;;;;;17.60;100.00;99160.75;5093532;28;20191;-58
2023/10/11 08:28:48;;;;;;;0.00;0.00;;;;;;;17.97;100.00;99151.97;5092509;28;20190;-58
2023/10/11 08:31:39;;;;;;;0.10;0.10;;;;;;;18.13;100.00;99149.50;5093295;28;20266;-58
2023/10/11 08:34:27;;;;;;;0.10;0.10;;;;;;;18.14;100.00;99151.19;5093223;28;20669;-58
2023/10/11 08:37:14;;;;;;;0.10;0.10;;;;;;;18.00;100.00;99149.00;5093120;28;20297;-58
2023/10/11 08:40:10;;;;;;;0.10;0.10;;;;;;;18.07;100.00;99146.59;5092937;28;20249;-58
2023/10/11 08:42:59;;;;;;;0.10;0.10;;;;;;;18.53;100.00;99159.94;5091896;28;20334;-58
2023/10/11 08:45:49;;;;;;;0.10;0.10;;;;;;;18.53;100.00;99159.94;5093281;28;20191;-58
2023/10/11 08:48:38;;;;;;;0.10;0.10;;;;;;;18.97;100.00;99164.66;5092931;28;20722;-58
2023/10/11 08:51:26;;;;;;;0.10;0.10;;;;;;;19.15;100.00;99157.47;5093129;28;20195;-58
2023/10/11 08:54:17;;;;;;;0.10;0.10;;;;;;;18.99;100.00;99168.88;5093066;28;20194;-58
2023/10/11 08:57:05;;;;;;;0.10;0.10;;;;;;;19.62;100.00;99147.34;5091740;28;20199;-58
2023/10/11 08:59:56;;;;;;;0.00;0.00;;;;;;;19.47;100.00;99142.66;5106319;28;20203;-59
2023/10/11 09:02:48;;;;;;;0.10;0.10;;;;;;;19.89;100.00;99132.94;5093060;28;20198;-58
2023/10/11 09:05:45;;;;;;;0.00;0.00;;;;;;;19.68;100.00;99129.75;5092985;28;20198;-58
2023/10/11 09:08:35;;;;;;;0.10;0.10;;;;;;;20.12;100.00;99135.06;5097142;28;20194;-58
2023/10/11 09:11:29;;;;;;;0.10;0.10;;;;;;;20.04;100.00;99132.34;5095706;28;20194;-58
2023/10/11 09:14:22;;;;;;;0.10;0.10;;;;;;;-144.59;100.00;99132.34;5097037;28;20202;-58
2023/10/11 09:17:19;;;;;;;0.10;0.10;;;;;;;-144.59;100.00;99137.31;5097046;28;20198;-58
2023/10/11 09:20:15;;;;;;;0.10;0.10;;;;;;;20.57;100.00;99124.06;5096895;28;20237;-58
2023/10/11 09:23:02;;;;;;;0.10;0.10;;;;;;;20.69;100.00;99128.13;5096918;28;20254;-58
2023/10/11 09:25:58;;;;;;;0.10;0.10;;;;;;;20.96;100.00;99118.13;5096880;28;20194;-58
2023/10/11 09:28:56;;;;;;;0.10;0.10;;;;;;;20.63;100.00;99118.00;5096652;28;20206;-58
2023/10/11 09:31:57;;;;;;;0.10;0.10;;;;;;;21.35;100.00;99110.28;5096491;28;20199;-58
2023/10/11 09:34:45;;;;;;;0.10;0.10;;;;;;;22.48;100.00;99119.16;5096616;28;20373;-58
2023/10/11 09:37:33;;;;;;;0.10;0.10;;;;;;;24.00;100.00;99127.41;5096331;28;20242;-58
2023/10/11 09:40:26;;;;;;;0.10;0.10;;;;;;;25.29;87.32;99121.41;5080950;28;20245;-58
2023/10/11 09:43:17;;;;;;;0.10;0.10;;;;;;;26.88;74.61;99122.50;5095271;28;20191;-59
2023/10/11 09:46:11;;;;;;;0.10;0.10;;;;;;;26.76;72.92;99127.72;5096449;28;20190;-59
2023/10/11 09:48:59;;;;;;;0.10;0.10;;;;;;;27.55;67.77;99129.81;5096496;28;20199;-59
2023/10/11 09:51:46;;;;;;;0.00;0.00;;;;;;;26.52;68.87;99125.50;5096324;28;20184;-59
2023/10/11 09:54:37;;;;;;;0.00;0.00;;;;;;;26.98;70.64;99124.84;5096240;28;20264;-59
2023/10/11 09:57:33;;;;;;;0.10;0.10;;;;;;;28.12;64.87;99119.34;5094726;28;20241;-59
2023/10/11 10:00:27;;;;;;;0.00;0.00;;;;;;;28.57;61.35;99113.97;5096172;28;20333;-59
2023/10/11 10:03:14;;;;;;;0.10;0.10;;;;;;;27.82;63.78;99114.34;5096217;28;20186;-59
2023/10/11 10:06:10;;;;;;;0.00;0.00;;;;;;;28.16;59.47;99118.69;5096048;28;20264;-59
2023/10/11 10:09:22;;;;;;;0.00;0.00;;;;;;;28.05;58.31;99123.94;5096032;28;20569;-59
2023/10/11 10:12:21;;;;;;;0.08;0.08;;;;;;;27.47;60.48;99126.44;5094581;28;20190;-59
2023/10/11 10:15:11;;;;;;;0.00;0.00;;;;;;;28.31;58.56;99117.66;5095932;28;20251;-59
2023/10/11 10:18:19;;;;;;;0.00;0.00;;;;;;;28.68;54.89;99119.63;5094707;28;20186;-59
2023/10/11 10:21:06;;;;;;;0.00;0.00;;;;;;;27.99;57.20;99117.47;5095812;28;20362;-58
2023/10/11 10:23:53;;;;;;;0.00;0.00;;;;;;;28.87;54.29;99123.31;5095787;28;20194;-59
2023/10/11 10:26:41;;;;;;;0.00;0.00;;;;;;;27.73;58.52;99117.50;5094148;28;20265;-59
2023/10/11 10:29:59;;;;;;;0.00;0.00;;;;;;;28.09;56.43;99109.72;5095680;28;20198;-59
2023/10/11 10:33:19;;;;;;;0.10;0.10;;;;;;;26.81;61.74;99113.50;5095361;28;20218;-59
2023/10/11 10:36:37;;;;;;;0.00;0.00;;;;;;;29.03;55.00;99108.34;5095471;28;20191;-59
2023/10/11 10:42:31;;;;;;;0.00;0.00;;;;;;;28.77;52.15;99109.31;5093810;28;20218;-59
2023/10/11 10:45:25;;;;;;;0.00;0.00;;;;;;;28.74;53.60;99113.28;5095097;28;20194;-59
2023/10/11 10:48:14;;;;;;;0.00;0.00;;;;;;;28.45;53.65;99106.47;5095140;28;20191;-59
2023/10/11 10:51:04;;;;;;;0.00;0.00;;;;;;;28.50;53.84;99103.13;5095250;28;20215;-59
2023/10/11 10:53:53;;;;;;;0.00;0.00;;;;;;;29.22;51.85;99096.47;5095125;28;20375;-59
2023/10/11 10:56:40;;;;;;;0.00;0.00;;;;;;;30.47;46.94;99096.44;5093743;28;20195;-59
2023/10/11 10:59:27;;;;;;;0.00;0.00;;;;;;;30.67;47.66;99101.69;5095041;28;20679;-59
2023/10/11 11:02:19;;;;;;;0.00;0.00;;;;;;;30.98;46.17;99090.56;5094718;28;20344;-59
2023/10/11 11:05:15;;;;;;;0.00;0.00;;;;;;;30.49;46.45;99095.13;5094920;28;20257;-59
2023/10/11 11:08:15;;;;;;;0.00;0.00;;;;;;;31.60;44.88;99110.28;5094855;28;20202;-59
2023/10/11 11:11:19;;;;;;;0.00;0.00;;;;;;;30.56;47.59;99088.75;5094816;28;20187;-59
2023/10/11 11:14:09;;;;;;;0.00;0.00;;;;;;;31.51;44.42;99086.19;5094726;28;20228;-59
2023/10/11 11:16:56;;;;;;;0.00;0.00;;;;;;;32.23;43.69;99094.22;5094754;28;20755;-59
2023/10/11 11:19:45;;;;;;;0.00;0.00;;;;;;;31.28;45.60;99085.09;5094662;28;20612;-59
2023/10/11 11:22:38;;;;;;;0.00;0.00;;;;;;;31.94;43.54;99085.91;5094365;28;20234;-59
2023/10/11 11:25:28;;;;;;;0.00;0.00;;;;;;;32.28;43.58;99089.69;5094550;28;20187;-59
2023/10/11 11:28:17;;;;;;;0.00;0.00;;;;;;;32.07;43.34;99074.72;5093164;28;20187;-59
2023/10/11 11:31:10;;;;;;;0.00;0.00;;;;;;;33.44;41.72;99073.09;5094338;28;20227;-59
2023/10/11 11:34:12;;;;;;;0.00;0.00;;;;;;;34.76;38.98;99074.22;5094459;28;20195;-59
2023/10/11 11:37:00;;;;;;;0.00;0.00;;;;;;;35.85;37.80;99071.97;5094158;28;20230;-57
2023/10/11 11:39:51;;;;;;;0.00;0.00;;;;;;;35.51;37.50;99076.94;5094320;28;20195;-57
2023/10/11 11:42:37;;;;;;;0.00;0.00;;;;;;;32.66;40.10;99071.88;5092581;28;20234;-57
2023/10/11 11:45:27;;;;;;;0.00;0.00;;;;;;;33.59;39.35;99065.13;5094179;28;20191;-57
2023/10/11 11:48:13;;;;;;;0.00;0.00;;;;;;;33.39;39.42;99062.00;5094182;28;20229;-57
2023/10/11 11:51:00;;;;;;;0.00;0.00;;;;;;;33.03;41.08;99058.63;5094088;28;20198;-57
2023/10/11 11:53:47;;;;;;;0.00;0.00;;;;;;;32.87;41.29;99052.00;5093946;28;20305;-57
2023/10/11 11:56:34;;;;;;;0.00;0.00;;;;;;;34.59;39.31;99047.59;5092583;28;20614;-57
2023/10/11 11:59:21;;;;;;;0.00;0.00;;;;;;;35.27;37.56;99045.31;5094031;28;20195;-57
2023/10/11 12:02:16;;;;;;;0.00;0.00;;;;;;;32.79;41.44;99041.38;5093690;28;20223;-57
2023/10/11 12:05:06;;;;;;;0.00;0.00;;;;;;;35.21;38.37;99036.16;5093747;28;20195;-57
2023/10/11 12:07:57;;;;;;;0.00;0.00;;;;;;;35.83;36.71;99037.50;5093756;28;20194;-57
2023/10/11 12:10:47;;;;;;;0.00;0.00;;;;;;;35.26;35.86;99033.44;5093555;28;20202;-57
2023/10/11 12:13:34;;;;;;;0.00;0.00;;;;;;;33.62;39.68;99025.31;5077409;28;20203;-57
2023/10/11 12:16:22;;;;;;;0.00;0.00;;;;;;;34.29;38.39;99015.03;5093657;28;20190;-57
2023/10/11 12:19:11;;;;;;;0.00;0.00;;;;;;;33.89;39.65;99015.31;5093573;28;20669;-57
2023/10/11 12:21:59;;;;;;;0.00;0.00;;;;;;;34.21;38.42;99014.63;5093441;28;20203;-58
2023/10/11 12:24:46;;;;;;;0.00;0.00;;;;;;;34.71;37.92;99004.25;5093463;28;20210;-58
2023/10/11 12:27:38;;;;;;;0.00;0.00;;;;;;;35.97;35.96;99002.84;5092026;28;20202;-58
2023/10/11 12:30:25;;;;;;;0.00;0.00;;;;;;;35.95;36.61;98999.53;5093169;28;20325;-59
2023/10/11 12:33:12;;;;;;;0.00;0.00;;;;;;;37.09;33.75;98992.22;5092787;28;20221;-59
2023/10/11 12:36:05;;;;;;;0.00;0.00;;;;;;;36.98;34.12;98987.78;5093071;28;20441;-58
2023/10/11 12:38:53;;;;;;;0.00;0.00;;;;;;;38.22;32.17;98981.84;5093376;28;20187;-59
2023/10/11 12:41:40;;;;;;;0.00;0.00;;;;;;;37.81;33.46;98977.25;5091326;28;20257;-59
2023/10/11 12:44:29;;;;;;;0.00;0.00;;;;;;;38.55;32.61;98978.34;5093096;28;20256;-59
2023/10/11 12:47:19;;;;;;;0.00;0.00;;;;;;;38.26;31.80;98974.63;5093153;28;20187;-59
2023/10/11 12:50:06;;;;;;;0.00;0.00;;;;;;;39.13;29.50;98975.78;5093160;28;20195;-59
2023/10/11 12:52:53;;;;;;;0.00;0.00;;;;;;;37.74;31.19;98970.34;5093046;28;20323;-59
2023/10/11 12:55:41;;;;;;;0.00;0.00;;;;;;;38.69;30.50;98961.94;5092944;28;20194;-59
2023/10/11 12:58:38;;;;;;;0.00;0.00;;;;;;;38.93;31.17;98960.13;5091689;28;20200;-59
2023/10/11 13:01:36;;;;;;;0.00;0.00;;;;;;;39.61;29.17;98964.84;5092893;28;20194;-59
2023/10/11 13:04:30;;;;;;;0.00;0.00;;;;;;;39.00;30.33;98956.22;5093106;28;20198;-59
2023/10/11 13:07:17;;;;;;;0.00;0.00;;;;;;;38.82;30.72;98950.25;5092665;28;20210;-59
2023/10/11 13:10:06;;;;;;;0.00;0.00;;;;;;;38.20;31.49;98950.81;5092891;28;20195;-59
2023/10/11 13:12:55;;;;;;;0.00;0.00;;;;;;;39.18;30.87;98949.97;5091654;28;20191;-59
2023/10/11 13:15:53;;;;;;;0.00;0.00;;;;;;;37.69;32.21;98940.75;5092793;28;20198;-59
2023/10/11 13:18:42;;;;;;;0.00;0.00;;;;;;;38.97;31.55;98940.16;5092831;28;20195;-59
2023/10/11 13:21:33;;;;;;;0.00;0.00;;;;;;;37.98;32.46;98940.97;5092893;28;20276;-59
2023/10/11 13:24:22;;;;;;;0.00;0.00;;;;;;;37.71;33.17;98937.69;5092461;28;20277;-59
2023/10/11 13:27:10;;;;;;;0.00;0.00;;;;;;;35.35;36.02;98937.38;5091322;28;20210;-59
2023/10/11 13:30:02;;;;;;;0.00;0.00;;;;;;;36.26;34.70;98931.53;5091783;28;20198;-59
2023/10/11 13:32:48;;;;;;;0.00;0.00;;;;;;;37.66;33.04;98932.22;5092542;28;20237;-59
2023/10/11 13:35:37;;;;;;;0.00;0.00;;;;;;;36.70;34.29;98928.34;5092880;28;20282;-59